Time;durP1;ratioP1;P1;durP2;ratioP2;P2;SDS_P1;SDS_P2;PMS_P1;PMS_P2;Temp;Humidity;BMP_temperature;BMP_pressure;BME280_temperature;BME280_humidity;BME280_pressure;Samples;Min_cycle;Max_cycle;Signal;HPM_P1;HPM_P2
2022/11/07 00:21:01;;;;;;;12.80;2.45;;;12.20;99.90;;;;;;4064588;29;20214;-94
2022/11/07 00:49:57;;;;;;;;;;;;;;;;;;;;;
2022/11/07 00:53:05;;;;;;;16.88;2.45;;;12.30;99.90;;;;;;4116686;28;20205;-95
2022/11/07 00:58:59;;;;;;;13.05;2.05;;;12.40;99.90;;;;;;4117091;28;20181;-93
2022/11/07 01:27:44;;;;;;;18.73;2.30;;;12.70;99.90;;;;;;4475585;22;20285;-96
2022/11/07 01:51:11;;;;;;;;;;;;;;;;;;;;;
2022/11/07 01:53:29;;;;;;;14.50;2.00;;;12.60;99.90;;;;;;4041274;29;20572;-95
2022/11/07 02:28:16;;;;;;;22.10;2.45;;;12.70;99.90;;;;;;4265468;22;20365;-96
2022/11/07 02:34:15;;;;;;;20.60;2.60;;;12.60;99.90;;;;;;4014122;29;20317;-93
2022/11/07 02:37:36;;;;;;;;;;;;;;;;;;;;;
2022/11/07 02:40:52;;;;;;;17.42;2.30;;;12.60;99.90;;;;;;4025451;29;20662;-96
2022/11/07 04:05:05;;;;;;;;;;;;;;;;;;;;;
2022/11/07 04:07:39;;;;;;;;;;;;;;;;;;;;;
2022/11/07 04:17:17;;;;;;;17.30;2.20;;;13.00;99.90;;;;;;4084490;29;20209;-94
2022/11/07 04:19:39;;;;;;;;;;;;;;;;;;;;;
2022/11/07 04:41:05;;;;;;;24.17;2.35;;;13.20;99.90;;;;;;4118065;28;20586;-96
2022/11/07 04:46:16;;;;;;;28.25;3.30;;;13.10;99.90;;;;;;4101376;28;20187;-94
2022/11/07 04:48:17;;;;;;;17.95;2.20;;;13.20;99.90;;;;;;4101798;28;20174;-95
2022/11/07 04:51:23;;;;;;;16.40;2.20;;;13.20;99.90;;;;;;4123645;28;20212;-95
2022/11/07 05:00:23;;;;;;;24.55;2.28;;;13.00;99.90;;;;;;4100509;28;20201;-95
2022/11/07 05:09:21;;;;;;;23.63;3.10;;;13.00;99.90;;;;;;4134145;28;20232;-92
2022/11/07 05:13:52;;;;;;;18.98;2.83;;;12.90;99.90;;;;;;4126225;22;20611;-94
2022/11/07 05:15:53;;;;;;;20.75;2.70;;;12.80;99.90;;;;;;4088952;29;20187;-94
2022/11/07 05:18:14;;;;;;;15.48;2.20;;;12.90;99.90;;;;;;4118437;28;20288;-95
2022/11/07 05:20:43;;;;;;;16.63;3.05;;;12.90;99.90;;;;;;4085988;29;20672;-94
2022/11/07 05:23:26;;;;;;;19.30;2.03;;;12.90;99.90;;;;;;4105023;28;20202;-95
2022/11/07 05:26:18;;;;;;;;;;;;;;;;;;;;;
2022/11/07 05:29:00;;;;;;;16.58;2.28;;;13.00;99.90;;;;;;4103452;29;20171;-95
2022/11/07 05:31:14;;;;;;;19.55;2.42;;;13.10;99.90;;;;;;4087554;29;20215;-93
2022/11/07 05:33:36;;;;;;;18.83;2.22;;;13.00;99.90;;;;;;4087245;29;20261;-96
2022/11/07 05:36:16;;;;;;;22.10;2.70;;;13.00;99.90;;;;;;4103918;28;20179;-96
2022/11/07 05:42:09;;;;;;;22.25;2.40;;;13.10;99.90;;;;;;4065474;29;20252;-93
2022/11/07 05:44:36;;;;;;;13.63;2.22;;;13.10;99.90;;;;;;4055869;29;20180;-95
2022/11/07 05:53:32;;;;;;;17.52;2.50;;;13.00;99.90;;;;;;4116137;28;20288;-95
2022/11/07 05:55:49;;;;;;;26.38;2.75;;;13.00;99.90;;;;;;4102166;29;20194;-95
2022/11/07 05:58:11;;;;;;;12.30;2.47;;;12.90;99.90;;;;;;4102865;29;20248;-93
2022/11/07 06:00:44;;;;;;;22.85;2.60;;;12.80;99.90;;;;;;4101564;28;20182;-95
2022/11/07 06:03:01;;;;;;;27.33;2.22;;;12.90;99.90;;;;;;4085880;29;20211;-94
2022/11/07 06:05:05;;;;;;;18.95;2.10;;;13.00;99.90;;;;;;4101909;29;20261;-93
2022/11/07 06:07:18;;;;;;;15.88;2.28;;;13.00;99.90;;;;;;4102526;29;20177;-96
2022/11/07 06:09:29;;;;;;;18.13;2.15;;;13.00;99.90;;;;;;4117882;28;20205;-94
2022/11/07 06:11:38;;;;;;;15.98;2.10;;;13.00;99.90;;;;;;4086295;29;20167;-95
2022/11/07 06:14:41;;;;;;;18.08;2.35;;;13.10;99.90;;;;;;4106567;28;20741;-96
2022/11/07 06:17:26;;;;;;;20.65;2.42;;;13.10;99.90;;;;;;4103779;29;20693;-96
2022/11/07 06:19:30;;;;;;;19.23;1.95;;;13.10;99.90;;;;;;4103066;29;20179;-94
2022/11/07 06:21:41;;;;;;;20.00;2.53;;;13.10;99.90;;;;;;4119281;28;20178;-94
2022/11/07 06:23:44;;;;;;;16.27;1.98;;;13.10;99.90;;;;;;4101407;28;20195;-94
2022/11/07 06:25:50;;;;;;;12.50;1.95;;;13.00;99.90;;;;;;4101899;29;20269;-94
2022/11/07 06:28:23;;;;;;;16.38;2.00;;;13.10;99.90;;;;;;4086025;29;20175;-96
2022/11/07 06:30:58;;;;;;;15.77;2.45;;;13.30;99.90;;;;;;4102276;29;20234;-96
2022/11/07 06:33:05;;;;;;;17.20;2.05;;;13.20;99.90;;;;;;4101477;28;20218;-93
2022/11/07 06:36:39;;;;;;;11.35;1.52;;;13.10;99.90;;;;;;4086100;29;20176;-94
2022/11/07 06:39:01;;;;;;;14.73;2.15;;;13.10;99.90;;;;;;4098520;28;20185;-96
2022/11/07 06:41:34;;;;;;;20.15;2.35;;;13.20;99.90;;;;;;4086760;29;20651;-93
2022/11/07 06:43:45;;;;;;;17.20;2.20;;;13.20;99.90;;;;;;4101930;28;20195;-93
2022/11/07 06:45:46;;;;;;;24.38;2.85;;;13.30;99.90;;;;;;4117752;28;20185;-94
2022/11/07 06:48:25;;;;;;;21.95;2.15;;;13.40;99.90;;;;;;4118465;28;20174;-94
2022/11/07 06:50:59;;;;;;;10.65;1.88;;;13.30;99.90;;;;;;4102542;29;20182;-94
2022/11/07 06:53:08;;;;;;;23.48;3.00;;;13.40;99.90;;;;;;4101917;28;20229;-93
2022/11/07 06:55:13;;;;;;;17.48;2.13;;;13.40;99.90;;;;;;4085984;29;20214;-94
2022/11/07 06:57:14;;;;;;;20.30;2.15;;;13.20;99.90;;;;;;4101383;29;20175;-95
2022/11/07 06:59:49;;;;;;;18.20;2.40;;;13.30;99.90;;;;;;4101366;28;20193;-96
2022/11/07 07:01:53;;;;;;;14.95;2.03;;;13.20;99.90;;;;;;4097552;29;20197;-94
2022/11/07 07:04:31;;;;;;;18.30;2.55;;;13.20;99.90;;;;;;4117175;28;20174;-95
2022/11/07 07:06:32;;;;;;;23.45;2.60;;;13.20;99.90;;;;;;4101415;29;20568;-93
2022/11/07 07:08:35;;;;;;;22.88;2.40;;;13.20;99.90;;;;;;4086127;29;20160;-94
2022/11/07 07:10:43;;;;;;;17.90;2.65;;;13.10;99.90;;;;;;4100536;28;20178;-92
2022/11/07 07:12:44;;;;;;;17.50;2.75;;;13.20;99.90;;;;;;4085334;29;20215;-93
2022/11/07 07:14:50;;;;;;;14.75;2.20;;;13.10;99.90;;;;;;4116896;28;20174;-94
2022/11/07 07:17:25;;;;;;;16.45;2.22;;;13.10;99.90;;;;;;4087035;29;20179;-95
2022/11/07 07:19:52;;;;;;;16.30;2.30;;;13.20;99.90;;;;;;4099192;28;20182;-96
2022/11/07 07:22:04;;;;;;;18.40;2.65;;;13.20;99.90;;;;;;4092958;28;20711;-94
2022/11/07 07:24:25;;;;;;;18.13;2.40;;;13.20;99.90;;;;;;4101667;29;20178;-95
2022/11/07 07:27:04;;;;;;;15.82;2.70;;;13.30;99.90;;;;;;4085453;29;20186;-95
2022/11/07 07:29:05;;;;;;;20.75;2.45;;;13.50;99.90;;;;;;4071814;29;20199;-94
2022/11/07 07:31:31;;;;;;;18.92;1.98;;;13.50;99.90;;;;;;4118601;28;20166;-95
2022/11/07 07:37:07;;;;;;;25.50;2.47;;;13.50;99.90;;;;;;4085538;28;20198;-95
2022/11/07 07:39:25;;;;;;;26.08;2.83;;;13.50;99.90;;;;;;4086105;29;20274;-94
2022/11/07 07:41:38;;;;;;;26.52;2.80;;;13.50;99.90;;;;;;4101449;28;20513;-94
2022/11/07 07:43:41;;;;;;;15.00;2.95;;;13.40;99.90;;;;;;4100693;28;20191;-94
2022/11/07 07:45:45;;;;;;;19.02;2.10;;;13.30;99.90;;;;;;4117302;28;20252;-93
2022/11/07 07:48:28;;;;;;;;;;;;;;;;;;;;;
2022/11/07 07:50:48;;;;;;;21.77;2.65;;;13.50;99.90;;;;;;4101092;28;20178;-95
2022/11/07 07:52:57;;;;;;;14.45;2.40;;;13.50;99.90;;;;;;4084410;29;20260;-93
2022/11/07 07:55:04;;;;;;;20.00;2.83;;;13.50;99.90;;;;;;4085269;29;20180;-94
2022/11/07 07:59:41;;;;;;;15.88;2.78;;;13.50;99.90;;;;;;4096456;29;20185;-95
2022/11/07 08:02:27;;;;;;;;;;;;;;;;;;;;;
2022/11/07 08:05:02;;;;;;;20.95;2.13;;;13.80;99.90;;;;;;4098212;28;20437;-95
2022/11/07 08:12:52;;;;;;;15.48;2.58;;;13.70;99.90;;;;;;4109416;28;20308;-95
2022/11/07 08:15:42;;;;;;;20.52;2.80;;;13.80;99.90;;;;;;4101955;29;20580;-95
2022/11/07 08:18:23;;;;;;;18.10;2.50;;;13.70;99.90;;;;;;4055875;29;20287;-96
2022/11/07 08:24:22;;;;;;;;;;;;;;;;;;;;;
2022/11/07 08:26:51;;;;;;;22.20;2.83;;;13.90;99.90;;;;;;4019748;29;20702;-95
2022/11/07 08:30:09;;;;;;;20.40;2.90;;;14.00;99.90;;;;;;4054718;29;20252;-96
2022/11/07 08:35:34;;;;;;;18.42;2.20;;;14.10;99.90;;;;;;4174354;22;20244;-95
2022/11/07 08:38:15;;;;;;;15.48;2.28;;;14.10;99.90;;;;;;4090545;29;20251;-96
2022/11/07 08:41:14;;;;;;;18.15;2.25;;;14.10;99.90;;;;;;4093716;28;20194;-94
2022/11/07 09:00:04;;;;;;;19.25;2.50;;;14.20;99.90;;;;;;4048255;29;20210;-96
2022/11/07 09:02:49;;;;;;;22.25;2.30;;;14.40;99.90;;;;;;4027138;29;20238;-96
2022/11/07 09:08:01;;;;;;;16.65;2.67;;;14.50;99.90;;;;;;4246551;22;20264;-93
2022/11/07 09:10:04;;;;;;;16.17;1.92;;;14.60;99.90;;;;;;4136023;28;20236;-94
2022/11/07 09:12:26;;;;;;;18.60;3.28;;;14.60;99.90;;;;;;4137254;28;20534;-96
2022/11/07 09:15:22;;;;;;;15.57;2.17;;;14.60;99.90;;;;;;4121702;28;20240;-96
2022/11/07 09:17:40;;;;;;;97.00;34.70;;;14.90;99.90;;;;;;4085910;29;20176;-95
2022/11/07 09:19:43;;;;;;;16.88;3.22;;;14.90;99.90;;;;;;4102763;29;20262;-93
2022/11/07 09:22:04;;;;;;;20.50;3.72;;;15.00;99.90;;;;;;4086461;29;20180;-95
2022/11/07 09:24:26;;;;;;;19.10;1.95;;;15.00;99.90;;;;;;4090608;28;20221;-95
2022/11/07 09:26:38;;;;;;;20.15;2.10;;;15.00;99.90;;;;;;4118377;28;20186;-96
2022/11/07 09:29:19;;;;;;;19.95;2.40;;;15.10;99.90;;;;;;4118766;28;20554;-95
2022/11/07 09:32:04;;;;;;;21.80;2.88;;;15.20;99.90;;;;;;4135307;28;20280;-94
2022/11/07 09:37:45;;;;;;;14.05;2.50;;;15.80;99.90;;;;;;4087965;29;20236;-94
2022/11/07 09:40:29;;;;;;;18.50;2.17;;;15.60;99.90;;;;;;4085498;29;20615;-94
2022/11/07 09:43:19;;;;;;;13.05;2.30;;;15.60;99.90;;;;;;4087616;29;20215;-96
2022/11/07 09:45:33;;;;;;;14.18;2.13;;;15.80;99.90;;;;;;4090459;28;20187;-96
2022/11/07 09:50:50;;;;;;;15.57;2.08;;;16.00;99.90;;;;;;4104527;29;20682;-95
2022/11/07 09:53:02;;;;;;;21.63;2.72;;;15.90;99.90;;;;;;4086110;29;20720;-95
2022/11/07 09:55:18;;;;;;;15.27;2.42;;;15.80;99.90;;;;;;4098748;28;20194;-93
2022/11/07 09:57:19;;;;;;;19.73;2.30;;;15.70;99.90;;;;;;4118208;28;20174;-95
2022/11/07 10:02:32;;;;;;;13.88;2.00;;;15.80;99.90;;;;;;4119838;28;20249;-94
2022/11/07 10:04:47;;;;;;;14.82;2.08;;;15.60;99.90;;;;;;4121796;28;20236;-94
2022/11/07 10:07:58;;;;;;;17.75;2.05;;;15.60;99.90;;;;;;4134910;28;20613;-95
2022/11/07 10:11:05;;;;;;;14.55;1.92;;;15.60;99.90;;;;;;4103227;28;20195;-96
2022/11/07 10:19:54;;;;;;;16.48;2.13;;;15.40;99.90;;;;;;4102334;28;20183;-93
2022/11/07 10:22:26;;;;;;;17.05;2.15;;;15.40;99.90;;;;;;4102784;28;20587;-96
2022/11/07 10:25:04;;;;;;;12.60;1.88;;;15.70;99.90;;;;;;4085710;29;20242;-94
2022/11/07 10:37:31;;;;;;;13.55;1.83;;;15.70;99.90;;;;;;4085424;29;20194;-94
2022/11/07 10:39:45;;;;;;;;;;;;;;;;;;;;;
2022/11/07 10:42:36;;;;;;;11.13;2.00;;;15.90;99.90;;;;;;4085158;29;20215;-95
2022/11/07 10:44:44;;;;;;;15.55;1.88;;;15.90;99.90;;;;;;4093054;28;20322;-94
2022/11/07 10:47:32;;;;;;;12.65;2.13;;;16.00;99.90;;;;;;4131569;28;20177;-95
2022/11/07 10:49:52;;;;;;;12.90;1.98;;;16.20;99.90;;;;;;4117879;28;20284;-93
2022/11/07 10:56:16;;;;;;;16.95;2.20;;;16.10;99.90;;;;;;4096276;28;20224;-96
2022/11/07 10:59:04;;;;;;;;;;;;;;;;;;;;;
2022/11/07 11:01:09;;;;;;;20.38;2.95;;;15.90;99.90;;;;;;4133209;28;20178;-92
2022/11/07 11:06:31;;;;;;;12.63;1.65;;;15.90;99.90;;;;;;4126929;28;20189;-95
2022/11/07 11:09:34;;;;;;;16.13;1.80;;;16.10;99.90;;;;;;4120543;28;20709;-96
2022/11/07 11:12:15;;;;;;;15.18;2.38;;;16.00;99.90;;;;;;4097919;29;20198;-95
2022/11/07 11:14:20;;;;;;;13.25;1.90;;;16.00;99.90;;;;;;4054661;29;20336;-94
2022/11/07 11:16:36;;;;;;;13.32;1.75;;;15.90;99.90;;;;;;4053458;29;20196;-95
2022/11/07 11:19:23;;;;;;;9.20;1.77;;;15.90;99.90;;;;;;4053825;29;20245;-95
2022/11/07 11:21:57;;;;;;;7.78;1.25;;;15.70;99.90;;;;;;4054801;29;20189;-95
2022/11/07 11:24:30;;;;;;;11.07;2.38;;;15.70;99.90;;;;;;4055767;29;20184;-95
2022/11/07 11:26:49;;;;;;;15.90;1.63;;;15.60;99.90;;;;;;4086174;29;20232;-95
2022/11/07 11:29:46;;;;;;;11.00;1.85;;;15.60;99.90;;;;;;4134294;28;20252;-94
2022/11/07 11:31:55;;;;;;;13.23;1.75;;;15.60;99.90;;;;;;4072381;29;20757;-94
2022/11/07 11:34:26;;;;;;;14.98;1.90;;;15.70;99.90;;;;;;4117767;28;20764;-94
2022/11/07 11:37:06;;;;;;;8.30;1.63;;;15.80;99.90;;;;;;4118041;28;20189;-96
2022/11/07 11:40:01;;;;;;;14.43;2.40;;;15.80;99.90;;;;;;4125012;28;20597;-95
2022/11/07 11:42:41;;;;;;;;;;;;;;;;;;;;;
2022/11/07 11:45:48;;;;;;;11.55;1.85;;;15.80;99.90;;;;;;4120455;28;20270;-94
2022/11/07 11:48:14;;;;;;;13.50;1.77;;;15.90;99.90;;;;;;4131847;28;20262;-96
2022/11/07 11:51:05;;;;;;;12.13;1.33;;;16.00;99.90;;;;;;4134422;28;20181;-96
2022/11/07 11:53:16;;;;;;;17.00;2.38;;;15.90;99.90;;;;;;4133354;28;20201;-94
2022/11/07 11:56:32;;;;;;;;;;;;;;;;;;;;;
2022/11/07 11:59:12;;;;;;;12.43;1.73;;;16.10;99.90;;;;;;4118461;28;20197;-94
2022/11/07 12:01:50;;;;;;;8.65;1.50;;;16.00;99.90;;;;;;4115818;28;20186;-94
2022/11/07 12:04:31;;;;;;;15.93;1.80;;;16.00;99.90;;;;;;4117628;28;20201;-93
2022/11/07 12:07:49;;;;;;;9.80;1.63;;;16.00;99.90;;;;;;4132594;28;20327;-95
2022/11/07 12:10:07;;;;;;;9.20;1.50;;;16.00;99.90;;;;;;4130175;28;20219;-94
2022/11/07 12:12:49;;;;;;;12.60;2.58;;;15.80;99.90;;;;;;4116005;28;20278;-92
2022/11/07 12:15:27;;;;;;;10.50;1.95;;;16.00;99.90;;;;;;4115815;28;20878;-96
2022/11/07 12:17:36;;;;;;;14.43;2.00;;;16.10;99.90;;;;;;4132213;28;20277;-94
2022/11/07 12:19:58;;;;;;;15.88;2.05;;;16.00;99.90;;;;;;4132532;28;20204;-93
2022/11/07 12:22:48;;;;;;;13.27;1.83;;;16.20;99.90;;;;;;4117281;28;20186;-95
2022/11/07 12:25:41;;;;;;;10.85;1.75;;;16.10;99.90;;;;;;4112816;28;20189;-94
2022/11/07 12:28:15;;;;;;;9.38;1.60;;;16.20;99.90;;;;;;4068574;29;20283;-95
2022/11/07 12:30:44;;;;;;;11.77;1.48;;;16.30;99.90;;;;;;4053635;29;20208;-96
2022/11/07 12:33:00;;;;;;;10.13;1.83;;;16.20;99.90;;;;;;4043436;29;20209;-95
2022/11/07 12:35:44;;;;;;;15.68;2.22;;;16.30;99.90;;;;;;4053275;29;20196;-95
2022/11/07 12:37:55;;;;;;;12.45;1.92;;;16.40;99.90;;;;;;4052519;29;20183;-95
2022/11/07 12:40:42;;;;;;;10.18;1.92;;;16.30;99.90;;;;;;4052894;29;20188;-94
2022/11/07 12:43:14;;;;;;;15.57;2.17;;;16.30;99.90;;;;;;4141537;22;20681;-96
2022/11/07 12:45:47;;;;;;;10.65;1.50;;;16.40;99.90;;;;;;4102737;28;20195;-95
2022/11/07 12:48:43;;;;;;;16.75;2.08;;;16.40;99.90;;;;;;4117837;28;20229;-95
2022/11/07 12:51:14;;;;;;;12.05;1.73;;;16.40;99.90;;;;;;4116706;28;20226;-94
2022/11/07 12:53:55;;;;;;;14.07;1.90;;;16.50;99.90;;;;;;4101105;28;20215;-94
2022/11/07 13:02:06;;;;;;;15.40;2.15;;;16.70;99.90;;;;;;4079300;29;20246;-96
2022/11/07 13:05:37;;;;;;;10.55;1.75;;;16.80;99.90;;;;;;4095609;29;20179;-94
2022/11/07 13:08:09;;;;;;;12.65;2.10;;;17.00;99.90;;;;;;4070999;29;20748;-94
2022/11/07 13:13:59;;;;;;;14.27;1.88;;;16.50;99.90;;;;;;4024807;29;20301;-95
2022/11/07 13:16:47;;;;;;;12.20;2.00;;;16.70;99.90;;;;;;4025861;29;20654;-96
2022/11/07 13:19:07;;;;;;;10.98;1.70;;;16.70;99.90;;;;;;4056802;29;20750;-95
2022/11/07 13:21:11;;;;;;;20.33;1.98;;;16.60;99.90;;;;;;4076688;29;20227;-95
2022/11/07 13:23:34;;;;;;;13.65;1.98;;;16.50;99.90;;;;;;4086812;29;20202;-93
2022/11/07 13:25:35;;;;;;;14.15;1.52;;;16.60;99.90;;;;;;4087908;29;20250;-96
2022/11/07 13:31:17;;;;;;;8.07;1.48;;;16.40;99.90;;;;;;4084200;29;20183;-95
2022/11/07 13:33:43;;;;;;;12.27;1.80;;;16.10;99.90;;;;;;4055995;29;20232;-95
2022/11/07 13:35:53;;;;;;;15.23;2.13;;;15.90;99.90;;;;;;4074105;29;20194;-93
2022/11/07 13:38:36;;;;;;;14.88;1.75;;;16.00;99.90;;;;;;4070883;29;20207;-96
2022/11/07 13:41:11;;;;;;;14.90;2.33;;;16.00;99.90;;;;;;4073633;29;20181;-94
2022/11/07 13:43:43;;;;;;;18.85;1.92;;;16.00;99.90;;;;;;4072862;29;20313;-95
2022/11/07 13:45:57;;;;;;;14.00;2.70;;;16.20;99.90;;;;;;4072225;29;20203;-93
2022/11/07 13:48:41;;;;;;;15.48;2.10;;;16.20;99.90;;;;;;4071086;29;20172;-96
2022/11/07 13:51:17;;;;;;;16.45;1.98;;;16.40;99.90;;;;;;4071239;29;20271;-95
2022/11/07 13:53:32;;;;;;;11.88;2.15;;;16.30;99.90;;;;;;4086064;29;20266;-94
2022/11/07 13:56:02;;;;;;;17.52;2.15;;;16.30;99.90;;;;;;4070569;29;20184;-96
2022/11/07 13:59:03;;;;;;;11.85;1.85;;;16.20;99.90;;;;;;4080532;29;20192;-95
2022/11/07 14:01:53;;;;;;;16.15;1.98;;;16.30;99.90;;;;;;4081405;29;20178;-94
2022/11/07 14:04:33;;;;;;;;;;;;;;;;;;;;;
2022/11/07 14:06:36;;;;;;;18.67;2.38;;;16.10;99.90;;;;;;4101703;29;20174;-94
2022/11/07 14:08:39;;;;;;;12.27;1.90;;;16.00;99.90;;;;;;4085654;29;20198;-93
2022/11/07 14:11:55;;;;;;;;;;;;;;;;;;;;;
2022/11/07 14:14:28;;;;;;;12.57;1.63;;;16.20;99.90;;;;;;4103176;29;20217;-95
2022/11/07 14:16:42;;;;;;;19.60;2.33;;;16.40;99.90;;;;;;4070910;29;20641;-96
2022/11/07 14:18:47;;;;;;;13.00;1.80;;;16.50;99.90;;;;;;4087067;29;20175;-95
2022/11/07 14:20:53;;;;;;;8.18;1.85;;;16.50;99.90;;;;;;4086708;29;20273;-95
2022/11/07 14:23:32;;;;;;;14.30;1.90;;;16.50;99.90;;;;;;4086245;29;20199;-95
2022/11/07 14:25:35;;;;;;;11.65;1.70;;;16.30;99.90;;;;;;4085187;29;20195;-95
2022/11/07 14:27:45;;;;;;;16.08;2.17;;;16.20;99.90;;;;;;4087357;29;20175;-95
2022/11/07 14:33:26;;;;;;;10.75;1.60;;;16.20;99.90;;;;;;4072616;29;20222;-94
2022/11/07 14:35:56;;;;;;;12.38;2.20;;;16.20;99.90;;;;;;4042333;29;20189;-95
2022/11/07 14:38:24;;;;;;;14.93;1.60;;;16.10;99.90;;;;;;4089031;29;20171;-94
2022/11/07 14:40:34;;;;;;;11.18;1.77;;;16.20;99.90;;;;;;4105130;29;20219;-95
2022/11/07 14:43:02;;;;;;;17.45;1.83;;;16.10;99.90;;;;;;4106556;28;20253;-95
2022/11/07 14:45:47;;;;;;;14.32;2.08;;;15.90;99.90;;;;;;4105922;28;20215;-95
2022/11/07 14:48:06;;;;;;;12.32;2.20;;;15.90;99.90;;;;;;4089301;29;20171;-94
2022/11/07 14:50:30;;;;;;;14.65;1.75;;;16.10;99.90;;;;;;4105518;28;20183;-95
2022/11/07 14:52:47;;;;;;;15.18;2.33;;;16.10;99.90;;;;;;4087784;29;20366;-94
2022/11/07 15:00:51;;;;;;;16.08;1.83;;;16.00;99.90;;;;;;4071147;29;20185;-95
2022/11/07 15:03:52;;;;;;;15.27;2.05;;;16.10;99.90;;;;;;4355872;23;20308;-95
2022/11/07 15:06:28;;;;;;;12.10;1.48;;;16.00;99.90;;;;;;4135639;28;20610;-95
2022/11/07 15:09:19;;;;;;;;;;;;;;;;;;;;;
2022/11/07 15:17:26;;;;;;;;;;;;;;;;;;;;;
2022/11/07 15:31:54;;;;;;;13.65;2.13;;;15.90;99.90;;;;;;4163637;22;20602;-94
2022/11/07 15:34:43;;;;;;;11.23;1.80;;;15.90;99.90;;;;;;4085796;29;20311;-95
2022/11/07 15:37:24;;;;;;;10.50;1.40;;;15.90;99.90;;;;;;4053965;29;20355;-95
2022/11/07 15:47:27;;;;;;;12.00;1.80;;;15.80;99.90;;;;;;4258470;22;20276;-90
2022/11/07 15:49:29;;;;;;;7.43;1.20;;;15.80;99.90;;;;;;4100588;29;20175;-92
2022/11/07 15:51:39;;;;;;;13.27;1.65;;;15.80;99.90;;;;;;4090722;29;20175;-94
2022/11/07 15:53:58;;;;;;;10.75;1.90;;;15.80;99.90;;;;;;4103047;28;20214;-95
2022/11/07 15:56:50;;;;;;;11.98;1.60;;;15.80;99.90;;;;;;4113748;28;20266;-93
2022/11/07 15:58:56;;;;;;;12.73;1.80;;;15.70;99.90;;;;;;4083993;29;20210;-95
2022/11/07 16:01:55;;;;;;;8.23;1.63;;;15.60;99.90;;;;;;4095184;28;20191;-95
2022/11/07 16:04:02;;;;;;;17.48;1.75;;;15.50;99.90;;;;;;4101318;29;20183;-96
2022/11/07 16:06:46;;;;;;;12.55;1.70;;;15.50;99.90;;;;;;4100656;28;20179;-94
2022/11/07 16:08:49;;;;;;;11.20;1.40;;;15.40;99.90;;;;;;4085862;29;20179;-95
2022/11/07 16:11:06;;;;;;;;;;;;;;;;;;;;;
2022/11/07 16:13:20;;;;;;;14.05;2.03;;;15.60;99.90;;;;;;4100360;28;20241;-94
2022/11/07 16:16:02;;;;;;;13.27;1.70;;;15.80;99.90;;;;;;4116631;28;20200;-95
2022/11/07 16:18:52;;;;;;;14.02;1.60;;;15.80;99.90;;;;;;4101093;28;20249;-95
2022/11/07 16:21:24;;;;;;;10.40;2.00;;;15.90;99.90;;;;;;4092605;28;20194;-95
2022/11/07 16:23:37;;;;;;;9.95;1.50;;;15.80;99.90;;;;;;4085634;29;20251;-95
2022/11/07 16:25:50;;;;;;;11.25;1.55;;;15.80;99.90;;;;;;4099974;28;20219;-95
2022/11/07 16:28:27;;;;;;;11.75;1.55;;;15.70;99.90;;;;;;4116313;28;20180;-94
2022/11/07 16:33:29;;;;;;;;;;;;;;;;;;;;;
2022/11/07 16:35:50;;;;;;;10.52;1.80;;;15.70;99.90;;;;;;4100070;29;20221;-96
2022/11/07 16:37:53;;;;;;;12.75;1.65;;;15.70;99.90;;;;;;4100005;29;20517;-95
2022/11/07 16:40:29;;;;;;;16.20;2.05;;;15.60;99.90;;;;;;4085392;29;20686;-94
2022/11/07 16:43:21;;;;;;;8.50;1.75;;;15.50;99.90;;;;;;4103439;28;20209;-96
2022/11/07 16:48:05;;;;;;;17.38;1.63;;;15.70;99.90;;;;;;4095896;29;20215;-96
2022/11/07 16:50:44;;;;;;;10.65;2.00;;;15.60;99.90;;;;;;4087506;29;20171;-95
2022/11/07 16:52:47;;;;;;;8.18;1.83;;;15.70;99.90;;;;;;4102370;28;20198;-95
2022/11/07 16:55:03;;;;;;;14.23;1.80;;;15.80;99.90;;;;;;4102068;29;20210;-93
2022/11/07 16:57:27;;;;;;;15.75;2.67;;;16.00;99.90;;;;;;4104477;28;20191;-92
2022/11/07 16:59:31;;;;;;;14.57;1.80;;;16.00;99.90;;;;;;4104393;28;20254;-95
2022/11/07 17:01:42;;;;;;;8.82;1.63;;;16.10;99.90;;;;;;4103850;28;20183;-95
2022/11/07 17:05:11;;;;;;;14.15;2.00;;;15.90;99.90;;;;;;4106924;28;20281;-96
2022/11/07 17:07:24;;;;;;;18.20;2.38;;;15.80;99.90;;;;;;4009086;29;20199;-93
2022/11/07 17:13:01;;;;;;;12.52;2.25;;;15.70;99.90;;;;;;4041476;29;20220;-93
2022/11/07 17:15:45;;;;;;;14.38;2.38;;;15.70;99.90;;;;;;4044295;29;20192;-96
2022/11/07 17:18:55;;;;;;;11.70;2.40;;;15.50;99.90;;;;;;4073337;29;20217;-93
2022/11/07 17:21:47;;;;;;;;;;;;;;;;;;;;;
2022/11/07 17:24:09;;;;;;;15.85;2.30;;;15.50;99.90;;;;;;4081298;29;20268;-95
2022/11/07 17:26:46;;;;;;;15.73;2.40;;;15.40;99.90;;;;;;4076169;29;20172;-95
2022/11/07 17:29:42;;;;;;;13.43;1.85;;;15.60;99.90;;;;;;4027858;29;20178;-95
2022/11/07 17:31:57;;;;;;;10.02;2.00;;;15.40;99.90;;;;;;4027934;29;20790;-95
2022/11/07 17:38:04;;;;;;;14.07;2.42;;;15.30;99.90;;;;;;4009249;29;20264;-95
2022/11/07 17:41:29;;;;;;;19.42;2.40;;;15.40;99.90;;;;;;4039664;29;20189;-94
2022/11/07 17:43:53;;;;;;;;;;;;;;;;;;;;;
2022/11/07 17:47:00;;;;;;;12.10;2.30;;;15.20;99.90;;;;;;4051259;29;20182;-95
2022/11/07 17:52:21;;;;;;;12.73;2.17;;;15.30;99.90;;;;;;4055821;29;20170;-95
2022/11/07 18:16:49;;;;;;;12.88;2.22;;;15.20;99.90;;;;;;4127010;28;20741;-95
2022/11/07 18:21:53;;;;;;;15.30;2.58;;;15.20;99.90;;;;;;4110355;28;20344;-95
2022/11/07 18:24:22;;;;;;;13.40;2.38;;;15.20;99.90;;;;;;4117906;28;20699;-96
2022/11/07 18:27:02;;;;;;;;;;;;;;;;;;;;;
2022/11/07 18:29:11;;;;;;;13.73;3.50;;;15.30;99.90;;;;;;4117542;28;20182;-96
2022/11/07 18:31:53;;;;;;;17.80;3.55;;;15.20;99.90;;;;;;4117416;28;20269;-92
2022/11/07 18:35:24;;;;;;;20.42;3.35;;;15.30;99.90;;;;;;4085343;29;20219;-96
2022/11/07 18:38:43;;;;;;;22.67;4.18;;;15.50;99.90;;;;;;4131725;28;20181;-96
2022/11/07 18:41:59;;;;;;;16.75;3.70;;;15.40;99.90;;;;;;4113530;28;20201;-93
2022/11/07 18:44:19;;;;;;;25.33;5.30;;;15.10;99.90;;;;;;4123021;28;20221;-96
2022/11/07 18:46:53;;;;;;;21.45;6.00;;;15.00;99.90;;;;;;4056870;29;20172;-96
2022/11/07 18:49:20;;;;;;;20.00;6.40;;;15.00;99.90;;;;;;4054094;29;20176;-96
2022/11/07 18:52:16;;;;;;;29.13;5.97;;;15.20;99.90;;;;;;4038897;29;20185;-96
2022/11/07 18:54:36;;;;;;;25.48;4.93;;;15.20;99.90;;;;;;4037228;29;20232;-93
2022/11/07 19:05:32;;;;;;;;;;;;;;;;;;;;;
2022/11/07 19:08:34;;;;;;;;;;;;;;;;;;;;;
2022/11/07 19:15:28;;;;;;;13.45;3.05;;;15.00;99.90;;;;;;4024535;29;20224;-92
2022/11/07 19:17:44;;;;;;;17.15;2.75;;;15.10;99.90;;;;;;4037183;29;20261;-94
2022/11/07 19:20:32;;;;;;;;;;;;;;;;;;;;;
2022/11/07 19:23:01;;;;;;;20.65;3.22;;;15.20;99.90;;;;;;4021258;29;20715;-92
2022/11/07 19:25:18;;;;;;;20.20;3.08;;;15.10;99.90;;;;;;4038150;29;20200;-94
2022/11/07 19:28:25;;;;;;;14.75;3.17;;;15.10;99.90;;;;;;4021243;29;20544;-95
2022/11/07 19:30:59;;;;;;;;;;;;;;;;;;;;;
2022/11/07 19:33:43;;;;;;;10.80;2.58;;;15.10;99.90;;;;;;4007456;29;20206;-94
2022/11/07 19:39:35;;;;;;;13.45;2.60;;;15.10;99.90;;;;;;4037319;29;20189;-93
2022/11/07 19:42:00;;;;;;;10.85;2.10;;;15.20;99.90;;;;;;4023814;29;20178;-94
2022/11/07 19:44:18;;;;;;;14.43;2.00;;;15.20;99.90;;;;;;4064634;29;20195;-94
2022/11/07 19:46:47;;;;;;;10.75;2.00;;;15.30;99.90;;;;;;4084624;29;20172;-92
2022/11/07 19:49:17;;;;;;;10.07;1.70;;;15.30;99.90;;;;;;4100326;28;20206;-95
2022/11/07 19:51:45;;;;;;;12.52;2.03;;;15.30;99.90;;;;;;4085494;29;20175;-95
2022/11/07 19:54:44;;;;;;;14.65;2.08;;;15.20;99.90;;;;;;4083673;28;20246;-92
2022/11/07 19:56:50;;;;;;;14.70;1.88;;;15.20;99.90;;;;;;4094783;28;20305;-93
2022/11/07 19:59:00;;;;;;;16.58;1.83;;;15.20;99.90;;;;;;4068690;29;20191;-96
2022/11/07 20:04:24;;;;;;;12.45;2.10;;;15.10;99.90;;;;;;4036467;29;20205;-94
2022/11/07 20:06:38;;;;;;;13.57;2.13;;;15.20;99.90;;;;;;4006343;29;20191;-94
2022/11/07 20:09:22;;;;;;;10.02;2.00;;;15.10;99.90;;;;;;4021628;29;20186;-94
2022/11/07 20:11:46;;;;;;;;;;;;;;;;;;;;;
2022/11/07 20:17:57;;;;;;;12.18;2.13;;;15.20;99.90;;;;;;4084515;29;20183;-95
2022/11/07 20:20:54;;;;;;;11.25;1.85;;;15.20;99.90;;;;;;4064523;28;20193;-94
2022/11/07 20:23:33;;;;;;;8.50;1.98;;;15.30;99.90;;;;;;4082654;29;20221;-92
2022/11/07 20:25:57;;;;;;;10.55;1.67;;;15.20;99.90;;;;;;4100422;28;20201;-94
2022/11/07 20:28:24;;;;;;;9.48;1.88;;;15.10;99.90;;;;;;4088871;29;20237;-94
2022/11/07 20:30:58;;;;;;;;;;;;;;;;;;;;;
2022/11/07 20:36:17;;;;;;;12.27;1.58;;;14.90;99.90;;;;;;4057500;29;20219;-94
2022/11/07 20:41:49;;;;;;;15.52;1.90;;;14.70;99.90;;;;;;4090491;29;20242;-93
2022/11/07 20:44:52;;;;;;;7.30;1.73;;;14.60;99.90;;;;;;4088950;29;20179;-93
2022/11/07 20:47:26;;;;;;;7.65;1.88;;;14.50;99.90;;;;;;4057133;29;20196;-95
2022/11/07 20:50:28;;;;;;;11.10;1.98;;;14.50;99.90;;;;;;4039717;29;20189;-92
2022/11/07 20:52:52;;;;;;;7.10;2.05;;;14.60;99.90;;;;;;4026026;29;20281;-93
2022/11/07 20:59:30;;;;;;;7.82;1.60;;;14.30;99.90;;;;;;3989601;29;20201;-92
2022/11/07 21:04:46;;;;;;;;;;;;;;;;;;;;;
2022/11/07 21:07:54;;;;;;;9.98;1.92;;;14.00;99.90;;;;;;4072891;29;20653;-93